Time;durP1;ratioP1;P1;durP2;ratioP2;P2;SDS_P1;SDS_P2;PMS_P1;PMS_P2;Temp;Humidity;BMP_temperature;BMP_pressure;BME280_temperature;BME280_humidity;BME280_pressure;Samples;Min_cycle;Max_cycle;Signal;HPM_P1;HPM_P2
2023/06/30 00:02:12;;;;;;;5.10;3.03;;;15.70;99.90;;;;;;5053125;28;20179;-63
2023/06/30 00:04:38;;;;;;;7.80;3.45;;;15.70;99.90;;;;;;5052955;28;20229;-62
2023/06/30 00:07:05;;;;;;;6.28;3.70;;;15.60;99.90;;;;;;5053080;28;20242;-62
2023/06/30 00:09:31;;;;;;;6.53;3.30;;;15.60;99.90;;;;;;5053097;28;20233;-62
2023/06/30 00:11:57;;;;;;;7.57;3.30;;;15.50;99.90;;;;;;5053072;28;20183;-62
2023/06/30 00:14:23;;;;;;;7.90;3.50;;;15.50;99.90;;;;;;5053013;28;20179;-62
2023/06/30 00:16:49;;;;;;;9.23;3.50;;;15.40;99.90;;;;;;5052797;28;20214;-61
2023/06/30 00:19:18;;;;;;;5.15;2.90;;;15.50;99.90;;;;;;5052897;28;20206;-63
2023/06/30 00:21:44;;;;;;;6.35;3.35;;;15.40;99.90;;;;;;5053073;28;20171;-63
2023/06/30 00:24:13;;;;;;;6.50;3.20;;;15.40;99.90;;;;;;5052765;28;20179;-62
2023/06/30 00:26:40;;;;;;;8.07;3.63;;;15.30;99.90;;;;;;5052836;28;20305;-63
2023/06/30 00:29:06;;;;;;;6.15;3.30;;;15.30;99.90;;;;;;5053869;28;20175;-63
2023/06/30 00:31:32;;;;;;;6.20;3.30;;;15.30;99.90;;;;;;5056791;28;20643;-62
2023/06/30 00:33:58;;;;;;;6.07;3.33;;;15.20;99.90;;;;;;5056737;28;20175;-62
2023/06/30 00:36:24;;;;;;;6.35;3.47;;;15.30;99.90;;;;;;5056891;28;20513;-63
2023/06/30 00:38:51;;;;;;;5.97;3.42;;;15.20;99.90;;;;;;5056843;28;20187;-63
2023/06/30 00:41:18;;;;;;;6.95;4.05;;;15.30;99.90;;;;;;5056699;28;20263;-62
2023/06/30 00:43:44;;;;;;;8.85;3.38;;;15.20;99.90;;;;;;5056682;28;20493;-62
2023/06/30 00:46:13;;;;;;;5.80;3.47;;;15.20;99.90;;;;;;5056464;28;20237;-62
2023/06/30 00:48:39;;;;;;;6.65;3.50;;;15.10;99.90;;;;;;5056721;28;20168;-63
2023/06/30 00:51:05;;;;;;;9.02;3.67;;;15.10;99.90;;;;;;5056660;28;20171;-62
2023/06/30 00:53:31;;;;;;;5.65;3.50;;;15.10;99.90;;;;;;5056509;28;20163;-63
2023/06/30 00:55:57;;;;;;;8.23;3.45;;;15.10;99.90;;;;;;5056549;28;20259;-63
2023/06/30 00:58:23;;;;;;;6.30;3.47;;;15.10;99.90;;;;;;5056305;28;20655;-62
2023/06/30 01:00:54;;;;;;;8.73;3.30;;;15.10;99.90;;;;;;5056187;28;20189;-63
2023/06/30 01:03:39;;;;;;;6.03;3.35;;;15.00;99.90;;;;;;5056450;28;20172;-62
2023/06/30 01:06:16;;;;;;;4.75;3.47;;;15.00;99.90;;;;;;5056305;28;20170;-63
2023/06/30 01:09:11;;;;;;;7.28;3.70;;;15.00;99.90;;;;;;5056201;28;20183;-62
2023/06/30 01:11:37;;;;;;;7.90;3.95;;;15.00;99.90;;;;;;5051300;28;20194;-63
2023/06/30 01:14:06;;;;;;;5.70;3.58;;;14.80;99.90;;;;;;5056218;28;20175;-63
2023/06/30 01:16:33;;;;;;;6.70;3.40;;;14.90;99.90;;;;;;5056122;28;20176;-63
2023/06/30 01:19:01;;;;;;;8.85;3.45;;;14.80;99.90;;;;;;5055808;28;20237;-63
2023/06/30 01:21:29;;;;;;;6.78;3.28;;;14.70;99.90;;;;;;5055953;28;20174;-63
2023/06/30 01:24:04;;;;;;;7.07;3.65;;;14.70;99.90;;;;;;5055764;28;20175;-63
2023/06/30 01:26:34;;;;;;;7.18;3.55;;;14.60;99.90;;;;;;5055985;28;20191;-63
2023/06/30 01:29:03;;;;;;;6.10;3.40;;;14.60;99.90;;;;;;5055916;28;20175;-63
2023/06/30 01:31:31;;;;;;;6.32;3.22;;;14.60;99.90;;;;;;5055740;28;20180;-62
2023/06/30 01:33:58;;;;;;;7.18;3.50;;;14.50;99.90;;;;;;5055683;28;20528;-63
2023/06/30 01:36:24;;;;;;;6.18;3.25;;;14.60;99.90;;;;;;5055605;28;20180;-63
2023/06/30 01:38:49;;;;;;;8.20;3.40;;;14.50;99.90;;;;;;5055778;28;20179;-63
2023/06/30 01:41:15;;;;;;;5.25;3.50;;;14.50;99.90;;;;;;5055346;28;20206;-63
2023/06/30 01:43:41;;;;;;;6.03;3.40;;;14.40;99.90;;;;;;5055524;28;20179;-63
2023/06/30 01:46:07;;;;;;;6.85;3.50;;;14.40;99.90;;;;;;5055400;28;20217;-63
2023/06/30 01:48:33;;;;;;;6.68;3.15;;;14.40;99.90;;;;;;5055518;28;20176;-63
2023/06/30 01:50:59;;;;;;;8.68;3.63;;;14.40;99.90;;;;;;5055331;28;20186;-63
2023/06/30 01:53:26;;;;;;;5.97;3.28;;;14.40;99.90;;;;;;5055559;28;20203;-63
2023/06/30 01:55:54;;;;;;;5.78;3.28;;;14.40;99.90;;;;;;5055511;28;20646;-63
2023/06/30 01:58:20;;;;;;;6.78;3.55;;;14.40;99.90;;;;;;5055321;28;20171;-63
2023/06/30 02:00:46;;;;;;;6.55;3.20;;;14.40;99.90;;;;;;5055292;28;20237;-63
2023/06/30 02:03:12;;;;;;;7.47;3.90;;;14.40;99.90;;;;;;5055114;28;20628;-63
2023/06/30 02:05:37;;;;;;;8.05;3.80;;;14.30;99.90;;;;;;5055055;28;20175;-63
2023/06/30 02:08:03;;;;;;;6.13;3.28;;;14.30;99.90;;;;;;5055206;28;20210;-63
2023/06/30 02:10:29;;;;;;;6.30;3.20;;;14.30;99.90;;;;;;5055280;28;20171;-63
2023/06/30 02:12:55;;;;;;;8.15;3.38;;;14.20;99.90;;;;;;5055375;28;20501;-63
2023/06/30 02:15:21;;;;;;;5.40;3.10;;;14.20;99.90;;;;;;5055065;28;20183;-63
2023/06/30 02:17:46;;;;;;;6.82;3.33;;;14.10;99.90;;;;;;5054977;28;20234;-62
2023/06/30 02:20:12;;;;;;;6.00;3.10;;;14.10;99.90;;;;;;5055054;28;20175;-63
2023/06/30 02:22:38;;;;;;;5.13;2.97;;;14.10;99.90;;;;;;5054930;28;20194;-63
2023/06/30 02:25:05;;;;;;;7.72;3.00;;;14.00;99.90;;;;;;5054853;28;20210;-62
2023/06/30 02:27:30;;;;;;;5.80;3.30;;;13.90;99.90;;;;;;5054624;28;20214;-63
2023/06/30 02:29:56;;;;;;;7.32;3.25;;;13.90;99.90;;;;;;5055399;28;20175;-63
2023/06/30 02:32:22;;;;;;;7.10;3.55;;;13.90;99.90;;;;;;5054572;28;20186;-63
2023/06/30 02:34:48;;;;;;;7.13;3.25;;;14.00;99.90;;;;;;5054456;28;20175;-63
2023/06/30 02:37:14;;;;;;;6.38;3.13;;;13.90;99.90;;;;;;5054671;28;20189;-63
2023/06/30 02:39:40;;;;;;;4.13;2.80;;;13.90;99.90;;;;;;5054633;28;20173;-63
2023/06/30 02:42:06;;;;;;;4.47;3.20;;;13.80;99.90;;;;;;5054538;28;20210;-63
2023/06/30 02:44:31;;;;;;;4.57;2.90;;;13.70;99.90;;;;;;5054393;28;20199;-62
2023/06/30 02:46:58;;;;;;;6.03;3.67;;;13.70;99.90;;;;;;5054196;28;20211;-63
2023/06/30 02:49:24;;;;;;;7.93;3.30;;;13.70;99.90;;;;;;5054240;28;20675;-63
2023/06/30 02:51:49;;;;;;;5.25;2.83;;;13.70;99.90;;;;;;5054083;28;20183;-63
2023/06/30 02:54:15;;;;;;;6.25;3.35;;;13.70;99.90;;;;;;5054363;28;20594;-63
2023/06/30 02:56:41;;;;;;;4.53;3.33;;;13.60;99.90;;;;;;5054231;28;20206;-63
2023/06/30 02:59:06;;;;;;;6.05;3.38;;;13.50;99.90;;;;;;5036687;28;20258;-62
2023/06/30 03:01:32;;;;;;;5.57;3.22;;;13.50;99.90;;;;;;5054056;28;20195;-62
2023/06/30 03:03:58;;;;;;;7.07;3.33;;;13.30;99.90;;;;;;5053918;28;20258;-62
2023/06/30 03:06:23;;;;;;;7.22;3.60;;;13.20;99.90;;;;;;5054027;28;20179;-62
2023/06/30 03:08:49;;;;;;;8.63;3.45;;;13.20;99.90;;;;;;5054069;28;20597;-62
2023/06/30 03:11:15;;;;;;;6.60;3.17;;;13.40;99.90;;;;;;5053968;28;20175;-62
2023/06/30 03:13:41;;;;;;;6.32;3.45;;;13.40;99.90;;;;;;5053853;28;20531;-62
2023/06/30 03:16:07;;;;;;;6.88;3.28;;;13.30;99.90;;;;;;5053829;28;20179;-62
2023/06/30 03:18:33;;;;;;;6.07;3.38;;;13.40;99.90;;;;;;5053889;28;20223;-62
2023/06/30 03:20:59;;;;;;;10.00;3.50;;;13.30;99.90;;;;;;5053710;28;20537;-62
2023/06/30 03:23:24;;;;;;;6.20;3.63;;;13.30;99.90;;;;;;5053820;28;20174;-62
2023/06/30 03:25:50;;;;;;;6.03;3.17;;;13.30;99.90;;;;;;5053524;28;20636;-62
2023/06/30 03:28:16;;;;;;;4.20;3.40;;;13.20;99.90;;;;;;5053571;28;20211;-62
2023/06/30 03:30:41;;;;;;;5.88;3.40;;;13.10;99.90;;;;;;5053600;28;20174;-62
2023/06/30 03:33:07;;;;;;;6.80;3.17;;;13.00;99.90;;;;;;5053453;28;20191;-62
2023/06/30 03:35:32;;;;;;;6.05;3.45;;;13.20;99.90;;;;;;5053688;28;20179;-62
2023/06/30 03:37:59;;;;;;;6.43;3.88;;;13.20;99.90;;;;;;5053543;28;20648;-62
2023/06/30 03:40:24;;;;;;;7.47;3.55;;;13.10;99.90;;;;;;5053459;28;20203;-62
2023/06/30 03:42:50;;;;;;;5.80;3.70;;;13.10;99.90;;;;;;5053334;28;20209;-62
2023/06/30 03:45:16;;;;;;;6.60;3.60;;;13.00;99.90;;;;;;5053763;28;20574;-62
2023/06/30 03:47:41;;;;;;;5.85;3.25;;;13.00;99.90;;;;;;5053280;28;20195;-62
2023/06/30 03:50:07;;;;;;;7.32;3.53;;;13.10;99.90;;;;;;5053524;28;20183;-62
2023/06/30 03:52:33;;;;;;;7.68;3.70;;;13.00;99.90;;;;;;5053469;28;20529;-62
2023/06/30 03:54:59;;;;;;;6.22;3.70;;;12.90;99.90;;;;;;5053379;28;20175;-62
2023/06/30 03:57:24;;;;;;;6.35;3.75;;;13.00;99.90;;;;;;5053242;28;20626;-62
2023/06/30 03:59:50;;;;;;;8.63;4.35;;;13.00;99.90;;;;;;5053135;28;20195;-62
2023/06/30 04:02:15;;;;;;;6.90;3.88;;;13.00;99.90;;;;;;5053133;28;20186;-62
2023/06/30 04:04:41;;;;;;;6.85;3.75;;;13.10;99.90;;;;;;5052378;28;20175;-62
2023/06/30 04:07:07;;;;;;;4.50;3.80;;;13.20;99.90;;;;;;5053146;28;20255;-62
2023/06/30 04:09:32;;;;;;;7.35;4.45;;;13.20;99.90;;;;;;5053123;28;20182;-62
2023/06/30 04:11:58;;;;;;;8.23;4.13;;;13.20;99.90;;;;;;5053092;28;20183;-62
2023/06/30 04:14:24;;;;;;;6.93;4.03;;;13.30;99.90;;;;;;5052954;28;20179;-62
2023/06/30 04:16:49;;;;;;;6.47;4.03;;;13.40;99.90;;;;;;5034968;28;20191;-62
2023/06/30 04:19:15;;;;;;;5.25;3.78;;;13.50;99.90;;;;;;5052888;28;20494;-62
2023/06/30 04:21:40;;;;;;;6.22;4.07;;;13.50;99.90;;;;;;5053069;28;20176;-62
2023/06/30 04:24:06;;;;;;;4.05;3.13;;;13.60;99.90;;;;;;5052908;28;20671;-62
2023/06/30 04:26:32;;;;;;;6.40;3.90;;;13.60;99.90;;;;;;5052910;28;20234;-62
2023/06/30 04:28:58;;;;;;;5.82;3.05;;;13.50;99.90;;;;;;5052853;28;20509;-62
2023/06/30 04:31:26;;;;;;;6.50;3.65;;;13.60;99.90;;;;;;5052868;28;20183;-62
2023/06/30 04:33:52;;;;;;;6.55;3.88;;;13.70;99.90;;;;;;5052531;28;20266;-62
2023/06/30 04:36:20;;;;;;;6.82;3.80;;;13.70;99.90;;;;;;5052941;28;20337;-62
2023/06/30 04:38:49;;;;;;;5.20;3.45;;;13.80;99.90;;;;;;5052889;28;20651;-62
2023/06/30 04:41:15;;;;;;;6.70;3.42;;;13.80;99.90;;;;;;5052829;28;20172;-62
2023/06/30 04:43:43;;;;;;;6.10;3.30;;;13.90;99.90;;;;;;5052895;28;20179;-62
2023/06/30 04:46:09;;;;;;;5.78;3.58;;;13.90;99.90;;;;;;5052570;28;20176;-63
2023/06/30 04:48:35;;;;;;;6.53;3.55;;;13.90;99.90;;;;;;5052548;28;20264;-62
2023/06/30 04:51:01;;;;;;;6.53;3.28;;;13.90;99.90;;;;;;5052723;28;20178;-63
2023/06/30 04:53:26;;;;;;;7.75;3.88;;;13.90;99.90;;;;;;5049927;28;20641;-63
2023/06/30 04:55:52;;;;;;;7.75;3.85;;;13.80;99.90;;;;;;5025612;28;20195;-62
2023/06/30 04:58:18;;;;;;;4.82;3.42;;;13.70;99.90;;;;;;5031955;28;20191;-62
2023/06/30 05:00:44;;;;;;;10.45;4.13;;;13.80;99.90;;;;;;5032456;28;20180;-62
2023/06/30 05:03:12;;;;;;;7.93;3.97;;;13.90;99.90;;;;;;5032823;28;20238;-63
2023/06/30 05:05:38;;;;;;;9.88;4.45;;;14.00;99.90;;;;;;5032618;28;20180;-61
2023/06/30 05:08:04;;;;;;;7.15;4.85;;;14.00;99.90;;;;;;5032463;28;20277;-61
2023/06/30 05:10:30;;;;;;;7.15;5.18;;;13.90;99.90;;;;;;5032614;28;20173;-62
2023/06/30 05:12:56;;;;;;;8.93;5.10;;;13.90;99.90;;;;;;5032524;28;20184;-61
2023/06/30 05:15:21;;;;;;;10.07;5.72;;;14.10;99.90;;;;;;5033729;28;20184;-61
2023/06/30 05:17:47;;;;;;;10.52;6.18;;;14.20;99.90;;;;;;5036191;28;20266;-61
2023/06/30 05:20:13;;;;;;;8.32;5.78;;;14.30;99.90;;;;;;5036030;28;20180;-61
2023/06/30 05:22:38;;;;;;;10.63;5.60;;;14.40;99.90;;;;;;5036070;28;20176;-61
2023/06/30 05:25:04;;;;;;;12.02;6.00;;;14.50;99.90;;;;;;5036049;28;20310;-61
2023/06/30 05:27:30;;;;;;;9.55;6.50;;;14.50;99.90;;;;;;5035791;28;20249;-61
2023/06/30 05:29:56;;;;;;;8.32;6.22;;;14.60;99.90;;;;;;5035757;28;20271;-61
2023/06/30 05:32:22;;;;;;;9.68;6.55;;;14.60;99.90;;;;;;5035774;28;20528;-61
2023/06/30 05:34:49;;;;;;;11.52;6.47;;;14.70;99.90;;;;;;5035783;28;20282;-61
2023/06/30 05:37:15;;;;;;;8.75;6.38;;;14.90;99.90;;;;;;5035759;28;20195;-61
2023/06/30 05:39:41;;;;;;;9.75;6.47;;;15.00;99.90;;;;;;5018156;28;20172;-62
2023/06/30 05:42:07;;;;;;;8.90;6.50;;;15.20;99.90;;;;;;5035722;28;20536;-62
2023/06/30 05:44:32;;;;;;;9.50;6.18;;;15.30;99.90;;;;;;5035498;28;20183;-61
2023/06/30 05:46:58;;;;;;;9.00;5.72;;;15.40;99.90;;;;;;5035798;28;20200;-61
2023/06/30 05:49:25;;;;;;;10.77;6.35;;;15.50;99.90;;;;;;5035688;28;20625;-61
2023/06/30 05:51:51;;;;;;;8.70;5.45;;;15.60;99.90;;;;;;5035395;28;20507;-61
2023/06/30 05:54:16;;;;;;;7.55;5.18;;;15.60;99.90;;;;;;5035708;28;20203;-61
2023/06/30 05:56:42;;;;;;;8.07;5.43;;;15.60;99.90;;;;;;5035595;28;20229;-61
2023/06/30 05:59:10;;;;;;;9.15;6.05;;;15.70;99.90;;;;;;5037203;28;20179;-62
2023/06/30 06:01:38;;;;;;;8.48;5.72;;;15.90;99.90;;;;;;5050908;28;20175;-61
2023/06/30 06:04:08;;;;;;;9.32;6.07;;;16.00;99.90;;;;;;5055449;28;20191;-61
2023/06/30 06:06:33;;;;;;;8.60;5.53;;;16.00;99.90;;;;;;5054416;28;20207;-62
2023/06/30 06:08:59;;;;;;;8.40;5.57;;;16.00;99.90;;;;;;5055257;28;20178;-61
2023/06/30 06:11:24;;;;;;;8.10;5.75;;;16.20;99.90;;;;;;5037103;28;20518;-61
2023/06/30 06:13:50;;;;;;;8.85;5.78;;;16.40;99.90;;;;;;5054876;28;20182;-61
2023/06/30 06:16:16;;;;;;;8.70;5.22;;;16.50;99.90;;;;;;5054775;28;20182;-61
2023/06/30 06:18:42;;;;;;;9.23;5.72;;;16.60;99.90;;;;;;5054794;28;20231;-61
2023/06/30 06:21:07;;;;;;;11.07;4.85;;;16.70;99.90;;;;;;5054896;28;20171;-61
2023/06/30 06:23:34;;;;;;;6.78;5.03;;;16.80;99.90;;;;;;5054855;28;20587;-61
2023/06/30 06:26:02;;;;;;;9.15;4.68;;;16.80;99.90;;;;;;5054353;28;20648;-61
2023/06/30 06:28:27;;;;;;;7.00;4.40;;;17.00;99.90;;;;;;5054010;28;20690;-61
2023/06/30 06:30:53;;;;;;;6.13;3.70;;;17.10;99.90;;;;;;5054657;28;20207;-62
2023/06/30 06:33:19;;;;;;;7.85;3.78;;;17.20;99.90;;;;;;5054692;28;20191;-61
2023/06/30 06:35:44;;;;;;;6.82;3.40;;;17.30;99.90;;;;;;5054618;28;20547;-63
2023/06/30 06:38:10;;;;;;;4.85;3.13;;;17.40;99.90;;;;;;5054614;28;20184;-62
2023/06/30 06:40:36;;;;;;;6.05;3.35;;;17.50;99.90;;;;;;5054456;28;20229;-61
2023/06/30 06:43:01;;;;;;;6.32;3.30;;;17.70;99.90;;;;;;5054349;28;20182;-61
2023/06/30 06:45:28;;;;;;;4.60;2.92;;;17.80;99.90;;;;;;5054572;28;20262;-61
2023/06/30 06:48:38;;;;;;;5.97;3.05;;;17.90;99.90;;;;;;5048386;28;20215;-62
2023/06/30 06:51:04;;;;;;;4.82;2.95;;;17.90;99.90;;;;;;5029512;28;20190;-61
2023/06/30 06:53:34;;;;;;;7.00;3.25;;;18.00;99.90;;;;;;5034258;28;20572;-62
2023/06/30 06:56:01;;;;;;;5.43;3.17;;;18.10;99.90;;;;;;5034486;28;20171;-62
2023/06/30 06:58:33;;;;;;;7.28;3.35;;;18.30;99.90;;;;;;5034285;28;20191;-62
2023/06/30 07:00:59;;;;;;;5.13;2.83;;;18.50;99.90;;;;;;5037317;28;20235;-62
2023/06/30 07:03:24;;;;;;;5.60;2.88;;;18.50;99.90;;;;;;5053796;28;20180;-62
2023/06/30 07:05:50;;;;;;;6.55;2.90;;;18.60;99.90;;;;;;5053876;28;20625;-62
2023/06/30 07:08:18;;;;;;;5.65;2.83;;;18.70;99.90;;;;;;5053775;28;20668;-62
2023/06/30 07:10:45;;;;;;;6.45;3.08;;;18.80;99.90;;;;;;5053997;28;20651;-62
2023/06/30 07:13:11;;;;;;;7.35;2.88;;;18.90;99.90;;;;;;5053999;28;20167;-62
2023/06/30 07:15:37;;;;;;;6.05;2.70;;;19.10;99.90;;;;;;5053723;28;20632;-62
2023/06/30 07:18:03;;;;;;;4.97;2.75;;;19.30;99.90;;;;;;5053649;28;20230;-62
2023/06/30 07:20:29;;;;;;;4.45;2.42;;;19.30;99.90;;;;;;5053583;28;20640;-62
2023/06/30 07:22:56;;;;;;;5.97;2.50;;;19.40;99.90;;;;;;5053674;28;20175;-61
2023/06/30 07:25:22;;;;;;;5.28;2.65;;;19.40;99.90;;;;;;5053722;28;20257;-61
2023/06/30 07:27:51;;;;;;;4.03;2.50;;;19.50;99.90;;;;;;5053519;28;20260;-61
2023/06/30 07:30:17;;;;;;;5.07;2.30;;;19.60;99.90;;;;;;5053249;28;20178;-61
2023/06/30 07:32:43;;;;;;;4.63;2.50;;;19.70;99.90;;;;;;5053364;28;20270;-62
2023/06/30 07:35:08;;;;;;;4.82;2.50;;;19.80;99.90;;;;;;5053416;28;20176;-62
2023/06/30 07:37:34;;;;;;;4.82;2.17;;;19.80;99.90;;;;;;5053509;28;20226;-62
2023/06/30 07:40:00;;;;;;;6.60;2.17;;;19.90;99.90;;;;;;5053645;28;20179;-62
2023/06/30 07:42:25;;;;;;;3.15;2.00;;;20.10;99.90;;;;;;5053513;28;20225;-62
2023/06/30 07:44:51;;;;;;;4.57;2.00;;;20.00;99.90;;;;;;5053450;28;20245;-62
2023/06/30 07:47:18;;;;;;;4.03;1.95;;;20.10;99.90;;;;;;5053271;28;20207;-62
2023/06/30 07:49:44;;;;;;;3.53;2.20;;;20.20;99.90;;;;;;5053389;28;20184;-62
2023/06/30 07:52:10;;;;;;;3.22;1.90;;;20.20;99.90;;;;;;5053842;28;20221;-61
2023/06/30 07:54:35;;;;;;;5.00;2.15;;;20.30;99.90;;;;;;5053335;28;20633;-62
2023/06/30 07:57:01;;;;;;;4.30;2.25;;;20.40;99.90;;;;;;5053335;28;20175;-61
2023/06/30 07:59:26;;;;;;;4.88;1.92;;;20.50;99.90;;;;;;5053292;28;20179;-61
2023/06/30 08:01:52;;;;;;;5.25;2.40;;;20.50;99.90;;;;;;5053071;28;20179;-61
2023/06/30 08:04:18;;;;;;;4.00;1.90;;;20.50;99.90;;;;;;5052830;28;20498;-62
2023/06/30 08:06:44;;;;;;;3.17;1.77;;;20.50;99.90;;;;;;5053430;28;20542;-62
2023/06/30 08:09:10;;;;;;;4.88;2.08;;;20.80;99.90;;;;;;5053124;28;20175;-62
2023/06/30 08:11:36;;;;;;;6.10;2.00;;;20.90;99.90;;;;;;5053143;28;20502;-62
2023/06/30 08:14:04;;;;;;;5.53;2.30;;;20.80;99.90;;;;;;5052628;28;20179;-62
2023/06/30 08:16:30;;;;;;;3.78;1.98;;;21.00;99.90;;;;;;5053005;28;20616;-62
2023/06/30 08:18:56;;;;;;;3.72;1.92;;;21.20;99.90;;;;;;5052548;28;20716;-62
2023/06/30 08:21:22;;;;;;;6.53;2.05;;;21.00;99.90;;;;;;5053185;28;20297;-62
2023/06/30 08:23:47;;;;;;;14.77;2.53;;;21.30;99.90;;;;;;5053129;28;20171;-62
2023/06/30 08:26:13;;;;;;;3.33;1.83;;;21.20;99.90;;;;;;5035217;28;20287;-62
2023/06/30 08:28:39;;;;;;;3.20;1.77;;;21.20;99.90;;;;;;5053025;28;20215;-62
2023/06/30 08:31:04;;;;;;;3.78;1.40;;;21.30;99.90;;;;;;5052749;28;20175;-62
2023/06/30 08:33:30;;;;;;;2.65;1.60;;;21.20;99.90;;;;;;5052793;28;20697;-64
2023/06/30 08:35:56;;;;;;;2.60;1.25;;;21.40;99.90;;;;;;5053301;28;20233;-62
2023/06/30 08:38:22;;;;;;;5.65;1.70;;;21.40;99.90;;;;;;5052894;28;20175;-62
2023/06/30 08:40:47;;;;;;;2.78;1.70;;;21.40;99.90;;;;;;5052915;28;20540;-63
2023/06/30 08:43:13;;;;;;;6.63;1.60;;;21.40;99.90;;;;;;5052846;28;20214;-62
2023/06/30 08:45:39;;;;;;;3.33;1.35;;;21.40;99.90;;;;;;5052806;28;20187;-62
2023/06/30 08:48:06;;;;;;;5.10;1.77;;;21.40;99.90;;;;;;5052538;28;20215;-62
2023/06/30 08:50:35;;;;;;;4.13;1.52;;;21.50;99.90;;;;;;5054520;28;20257;-62
2023/06/30 08:53:03;;;;;;;4.25;1.73;;;21.60;99.90;;;;;;5056410;28;20183;-63
2023/06/30 08:55:32;;;;;;;3.13;1.67;;;21.90;99.90;;;;;;5056416;28;20168;-62
2023/06/30 08:57:58;;;;;;;5.00;1.50;;;22.00;99.90;;;;;;5056562;28;20706;-62
2023/06/30 09:00:24;;;;;;;2.53;1.52;;;22.00;99.90;;;;;;5056440;28;20198;-63
2023/06/30 09:02:51;;;;;;;3.03;1.48;;;22.00;99.90;;;;;;5056044;28;20187;-63
2023/06/30 09:05:17;;;;;;;4.57;1.63;;;22.20;99.90;;;;;;5056289;28;20678;-62
2023/06/30 09:07:52;;;;;;;2.70;1.25;;;22.40;99.90;;;;;;5056326;28;20207;-62
2023/06/30 09:10:19;;;;;;;2.13;1.50;;;22.50;99.90;;;;;;5056400;28;20175;-62
2023/06/30 09:12:47;;;;;;;3.33;1.48;;;22.60;99.90;;;;;;5056270;28;20217;-62
2023/06/30 09:15:17;;;;;;;4.43;1.60;;;22.70;99.90;;;;;;5055963;28;20583;-63
2023/06/30 09:17:43;;;;;;;5.03;1.80;;;22.80;99.90;;;;;;5056143;28;20296;-62
2023/06/30 09:20:12;;;;;;;2.40;1.42;;;22.80;98.70;;;;;;5055986;28;20203;-63
2023/06/30 09:22:43;;;;;;;3.15;1.38;;;22.80;99.90;;;;;;5056192;28;20261;-63
2023/06/30 09:25:27;;;;;;;3.00;1.30;;;22.80;99.90;;;;;;5056145;28;20175;-63
2023/06/30 09:27:54;;;;;;;3.85;1.40;;;22.70;99.90;;;;;;5055259;28;20615;-63
2023/06/30 09:30:35;;;;;;;4.57;1.40;;;22.70;99.90;;;;;;5056033;28;20172;-63
2023/06/30 09:33:02;;;;;;;2.60;1.25;;;22.80;99.90;;;;;;5055837;28;20175;-63
2023/06/30 09:35:38;;;;;;;3.50;1.17;;;22.90;99.90;;;;;;5055810;28;20175;-63
2023/06/30 09:38:09;;;;;;;3.67;1.42;;;23.10;99.90;;;;;;5055654;28;20271;-63
2023/06/30 09:40:34;;;;;;;3.80;1.52;;;23.30;99.90;;;;;;5055947;28;20167;-62
2023/06/30 09:43:00;;;;;;;4.10;1.30;;;22.90;98.30;;;;;;5056022;28;20258;-63
2023/06/30 09:45:26;;;;;;;4.10;1.20;;;23.10;99.90;;;;;;5055712;28;20582;-63
2023/06/30 09:47:55;;;;;;;3.20;1.50;;;22.80;99.50;;;;;;5037970;28;20547;-63
2023/06/30 09:50:23;;;;;;;3.75;1.10;;;23.00;99.50;;;;;;5055605;28;20256;-63
2023/06/30 09:52:49;;;;;;;4.30;1.50;;;22.90;99.30;;;;;;5055168;28;20187;-63
2023/06/30 09:55:15;;;;;;;2.70;1.35;;;22.60;98.60;;;;;;5055447;28;20175;-63
2023/06/30 09:57:43;;;;;;;4.15;1.40;;;22.30;99.20;;;;;;5055446;28;20514;-63
2023/06/30 10:00:16;;;;;;;3.78;1.15;;;21.90;99.10;;;;;;5055315;28;20190;-63
2023/06/30 10:02:43;;;;;;;2.35;1.10;;;22.00;99.10;;;;;;5055111;28;20171;-63
2023/06/30 10:05:11;;;;;;;3.90;1.50;;;21.80;99.90;;;;;;5055204;28;20663;-63
2023/06/30 10:07:41;;;;;;;2.35;1.10;;;21.80;99.90;;;;;;5055292;28;20214;-63
2023/06/30 10:10:11;;;;;;;2.42;1.10;;;21.90;99.80;;;;;;5055196;28;20168;-63
2023/06/30 10:12:39;;;;;;;3.72;1.27;;;22.10;99.90;;;;;;5055183;28;20517;-63
2023/06/30 10:15:08;;;;;;;2.70;1.20;;;22.20;98.40;;;;;;5055037;28;20262;-63
2023/06/30 10:17:35;;;;;;;3.60;1.45;;;22.60;99.40;;;;;;5054753;28;20612;-63
2023/06/30 10:20:05;;;;;;;2.72;1.02;;;22.70;99.20;;;;;;5054659;28;20175;-63
2023/06/30 10:22:31;;;;;;;4.03;1.40;;;22.70;98.60;;;;;;5054902;28;20186;-63
2023/06/30 10:24:57;;;;;;;6.35;1.20;;;22.60;98.60;;;;;;5054917;28;20175;-63
2023/06/30 10:27:24;;;;;;;2.63;1.60;;;22.80;99.60;;;;;;5054902;28;20203;-63
2023/06/30 10:29:49;;;;;;;1.73;1.10;;;23.00;99.00;;;;;;5046783;28;20179;-62
2023/06/30 10:32:20;;;;;;;3.72;1.38;;;23.00;97.70;;;;;;5034657;28;20549;-62
2023/06/30 10:34:47;;;;;;;2.25;1.20;;;23.20;98.40;;;;;;5034578;28;20180;-62
2023/06/30 10:37:14;;;;;;;2.60;1.20;;;23.20;98.60;;;;;;5034807;28;20211;-62
2023/06/30 10:39:39;;;;;;;3.63;1.13;;;22.90;98.50;;;;;;5034710;28;20176;-62
2023/06/30 10:42:06;;;;;;;3.92;1.30;;;22.70;98.90;;;;;;5034685;28;20179;-62
2023/06/30 10:44:45;;;;;;;3.70;1.40;;;22.50;99.30;;;;;;5034571;28;20187;-62
2023/06/30 10:47:11;;;;;;;1.33;1.20;;;22.30;99.50;;;;;;5034760;28;20707;-62
2023/06/30 10:49:41;;;;;;;1.08;0.98;;;22.20;99.60;;;;;;5034407;28;20180;-62
2023/06/30 10:52:27;;;;;;;4.63;1.48;;;22.10;99.50;;;;;;5034460;28;20207;-62
2023/06/30 10:54:54;;;;;;;3.83;1.40;;;22.30;99.90;;;;;;5034350;28;20176;-62
2023/06/30 10:57:24;;;;;;;3.72;1.70;;;22.80;99.80;;;;;;5034213;28;20176;-62
2023/06/30 11:00:11;;;;;;;4.10;1.45;;;22.90;99.20;;;;;;5034422;28;20191;-62
2023/06/30 11:02:53;;;;;;;2.28;1.33;;;22.70;99.90;;;;;;5034203;28;20263;-62
2023/06/30 11:05:32;;;;;;;3.22;1.23;;;22.40;99.40;;;;;;5034139;28;20172;-63
2023/06/30 11:08:01;;;;;;;2.33;1.42;;;22.70;99.90;;;;;;5033953;28;20287;-62
2023/06/30 11:10:27;;;;;;;3.13;1.60;;;23.00;99.60;;;;;;5034166;28;20230;-62
2023/06/30 11:12:57;;;;;;;4.35;1.73;;;23.30;99.90;;;;;;5033525;28;20691;-62
2023/06/30 11:15:42;;;;;;;4.57;1.80;;;23.50;98.10;;;;;;5034010;28;20212;-62
2023/06/30 11:18:17;;;;;;;2.38;1.60;;;23.20;98.60;;;;;;5033590;28;20779;-63
2023/06/30 11:21:06;;;;;;;3.67;1.65;;;22.80;99.40;;;;;;5033897;28;20240;-62
2023/06/30 11:23:39;;;;;;;3.92;1.60;;;22.60;99.90;;;;;;5051825;28;20187;-62
2023/06/30 11:26:16;;;;;;;1.70;1.50;;;22.90;99.80;;;;;;5053323;28;20226;-63
2023/06/30 11:28:43;;;;;;;4.15;1.60;;;23.30;99.60;;;;;;5053319;28;20242;-62
2023/06/30 11:31:10;;;;;;;3.42;1.60;;;23.30;95.30;;;;;;5053387;28;20624;-62
2023/06/30 11:33:40;;;;;;;3.97;1.50;;;23.40;96.70;;;;;;5053869;28;20214;-62
2023/06/30 11:36:12;;;;;;;5.35;1.48;;;23.40;94.40;;;;;;5053511;28;20214;-62
2023/06/30 11:38:46;;;;;;;4.97;1.42;;;23.00;94.60;;;;;;5053391;28;20175;-63
2023/06/30 11:41:11;;;;;;;4.22;1.58;;;23.00;95.40;;;;;;5053160;28;20257;-63
2023/06/30 11:43:39;;;;;;;6.03;1.50;;;22.80;96.70;;;;;;5053352;28;20213;-62
2023/06/30 11:46:05;;;;;;;3.45;1.80;;;22.70;97.30;;;;;;5053478;28;20171;-62
2023/06/30 11:48:40;;;;;;;3.45;1.50;;;22.80;97.80;;;;;;5053247;28;20306;-63
2023/06/30 11:51:06;;;;;;;3.50;1.60;;;23.00;98.60;;;;;;5053297;28;20228;-62
2023/06/30 11:53:31;;;;;;;7.00;1.90;;;23.30;97.90;;;;;;5053195;28;20648;-62
2023/06/30 11:55:58;;;;;;;2.88;1.70;;;23.20;97.80;;;;;;5052956;28;20656;-63
2023/06/30 11:58:24;;;;;;;4.65;1.50;;;23.60;98.40;;;;;;5053933;28;20236;-62
2023/06/30 12:00:50;;;;;;;5.03;1.75;;;23.80;97.90;;;;;;5053307;28;20178;-63
2023/06/30 12:03:18;;;;;;;4.88;2.20;;;23.80;96.70;;;;;;5053187;28;20176;-64
2023/06/30 12:05:56;;;;;;;3.63;1.80;;;23.80;97.40;;;;;;5053127;28;20206;-62
2023/06/30 12:08:24;;;;;;;2.72;1.70;;;23.90;97.40;;;;;;5052989;28;20545;-63
2023/06/30 12:10:49;;;;;;;3.20;1.73;;;24.20;98.70;;;;;;5053130;28;20214;-63
2023/06/30 12:13:17;;;;;;;5.35;1.80;;;24.40;97.40;;;;;;5052906;28;20632;-62
2023/06/30 12:15:43;;;;;;;5.93;1.67;;;24.40;97.00;;;;;;5053053;28;20710;-62
2023/06/30 12:18:09;;;;;;;3.80;1.90;;;24.30;96.20;;;;;;5053166;28;20318;-62
2023/06/30 12:20:37;;;;;;;3.33;1.73;;;24.00;96.60;;;;;;5053047;28;20701;-63
2023/06/30 12:23:07;;;;;;;4.70;1.75;;;24.00;97.50;;;;;;5052964;28;20183;-62
2023/06/30 12:25:34;;;;;;;5.15;1.63;;;23.90;97.60;;;;;;5054565;28;20655;-62
2023/06/30 12:28:03;;;;;;;3.53;1.52;;;24.00;97.60;;;;;;5057083;28;20222;-62
2023/06/30 12:30:28;;;;;;;4.50;1.52;;;24.20;97.70;;;;;;5056945;28;20655;-63
2023/06/30 12:32:57;;;;;;;3.88;1.40;;;24.40;97.10;;;;;;5056837;28;20171;-63
2023/06/30 12:35:36;;;;;;;2.20;1.45;;;24.60;98.50;;;;;;5056752;28;20171;-63
2023/06/30 12:38:04;;;;;;;3.58;1.40;;;24.50;98.10;;;;;;5056786;28;20171;-62
2023/06/30 12:40:30;;;;;;;4.43;1.60;;;24.60;97.60;;;;;;5056997;28;20265;-62
2023/06/30 12:42:59;;;;;;;3.13;1.38;;;24.80;97.70;;;;;;5056757;28;20171;-62
2023/06/30 12:45:25;;;;;;;3.33;1.50;;;24.60;97.40;;;;;;5056680;28;20186;-62
2023/06/30 12:47:51;;;;;;;4.68;1.60;;;24.40;97.30;;;;;;5056500;28;20211;-62